West Union, Nebraska
Current Conditions -  °F | °C
As of 2:53 PM on Thursday 27 Nov 2014 (Local Time) from KBBW Reporting Station
Clear Clear  
Wind Chill: 35°   Ceiling: Unl
Heat Index: 43°   Visibility: 10mi
Dew Point: 22°   Wind: 18mph
Humidity: 43%   Direction: 190°S
Pressure: 30.09"   Gusts: NA
Location:  41.685°N, 99.3848°W
Report Text: KBBW 272053Z AUTO 19016KT 10SM CLR 06/M06 A3009 RMK AO2 SLP210 T00611056 56042
Loading
Personal Weather Stations






























Interactive Weather Map New forecast layout! Learn more

10-Day Weather Forecast

Advertisements
Track Severe Weather on mobile